createdAt,value
2018-05-24T00:00:25.460Z,5.37
2018-05-24T00:02:52.200Z,5.57
2018-05-24T00:05:18.973Z,5.33
2018-05-24T00:07:45.901Z,5.23
2018-05-24T00:10:12.625Z,4.90
2018-05-24T00:12:39.367Z,5.03
2018-05-24T00:15:06.120Z,5.10
2018-05-24T00:17:32.873Z,4.90
2018-05-24T00:19:59.616Z,4.80
2018-05-24T00:22:26.357Z,4.80
2018-05-24T00:24:53.092Z,4.67
2018-05-24T00:27:19.837Z,5.17
2018-05-24T00:29:46.608Z,4.43
2018-05-24T00:32:13.353Z,4.87
2018-05-24T00:34:40.091Z,5.13
2018-05-24T00:37:06.836Z,5.03
2018-05-24T00:39:33.604Z,5.57
2018-05-24T00:42:00.341Z,5.60
2018-05-24T00:44:27.084Z,4.80
2018-05-24T00:46:53.825Z,4.80
2018-05-24T00:49:20.548Z,4.90
2018-05-24T00:51:47.328Z,4.93
2018-05-24T00:54:14.076Z,5.00
2018-05-24T00:56:40.803Z,5.00
2018-05-24T00:59:07.548Z,5.40
2018-05-24T01:01:34.293Z,5.13
2018-05-24T01:04:01.042Z,4.80
2018-05-24T01:06:27.764Z,4.87
2018-05-24T01:08:54.493Z,5.23
2018-05-24T01:11:21.237Z,5.37
2018-05-24T01:13:48.013Z,5.07
2018-05-24T01:16:14.773Z,5.57
2018-05-24T01:18:41.560Z,5.43
2018-05-24T01:21:08.300Z,4.70
2018-05-24T01:23:35.060Z,4.83
2018-05-24T01:26:01.817Z,5.00
2018-05-24T01:28:28.568Z,4.80
2018-05-24T01:30:55.343Z,5.10
2018-05-24T01:33:22.082Z,4.90
2018-05-24T01:35:48.832Z,5.00
2018-05-24T01:38:15.737Z,5.00
2018-05-24T01:40:42.480Z,5.40
2018-05-24T01:43:09.226Z,4.67
2018-05-24T01:45:35.981Z,5.30
2018-05-24T01:48:02.721Z,5.13
2018-05-24T01:50:29.498Z,5.23
2018-05-24T01:52:56.228Z,5.47
2018-05-24T01:55:22.965Z,5.57
2018-05-24T01:57:49.718Z,6.00
2018-05-24T02:00:16.474Z,4.37
2018-05-24T02:02:43.216Z,5.30
2018-05-24T02:05:09.955Z,5.03
2018-05-24T02:07:36.897Z,5.20
2018-05-24T02:10:03.650Z,4.80
2018-05-24T02:12:30.416Z,5.40
2018-05-24T02:14:57.152Z,5.50
2018-05-24T02:17:23.896Z,5.23
2018-05-24T02:19:50.673Z,5.67
2018-05-24T02:22:17.415Z,5.03
2018-05-24T02:24:44.152Z,5.23
2018-05-24T02:27:10.926Z,5.07
2018-05-24T02:29:37.674Z,4.83
2018-05-24T02:32:04.413Z,4.67
2018-05-24T02:34:31.175Z,5.17
2018-05-24T02:36:57.913Z,5.40
2018-05-24T02:39:24.685Z,5.60
2018-05-24T02:41:51.414Z,5.47
2018-05-24T02:44:18.162Z,4.90
2018-05-24T02:46:44.905Z,4.97
2018-05-24T02:49:11.716Z,5.23
2018-05-24T02:51:38.452Z,5.40
2018-05-24T02:54:05.193Z,5.80
2018-05-24T02:56:31.946Z,6.07
2018-05-24T02:58:58.687Z,5.90
2018-05-24T03:01:25.445Z,5.93
2018-05-24T03:03:52.241Z,5.93
2018-05-24T03:06:19.001Z,5.53
2018-05-24T03:08:45.805Z,5.47
2018-05-24T03:11:13.132Z,6.07
2018-05-24T03:13:39.932Z,5.70
2018-05-24T03:16:06.688Z,6.00
2018-05-24T03:18:33.427Z,5.77
2018-05-24T03:21:00.198Z,5.27
2018-05-24T03:23:27.002Z,5.60
2018-05-24T03:25:53.764Z,6.10
2018-05-24T03:28:20.560Z,5.73
2018-05-24T03:30:47.297Z,5.50
2018-05-24T03:33:14.072Z,5.87
2018-05-24T03:35:41.036Z,5.60
2018-05-24T03:38:07.789Z,5.90
2018-05-24T03:40:34.565Z,6.30
2018-05-24T03:43:01.469Z,6.13
2018-05-24T03:45:28.234Z,6.10
2018-05-24T03:47:54.990Z,5.73
2018-05-24T03:50:21.909Z,6.27
2018-05-24T03:52:49.360Z,6.07
2018-05-24T03:55:16.149Z,5.93
2018-05-24T03:57:42.940Z,6.20
2018-05-24T04:00:15.553Z,7.03
2018-05-24T04:02:48.262Z,6.10
2018-05-24T04:07:58.825Z,6.20
2018-05-24T04:10:26.650Z,6.50
2018-05-24T04:15:29.446Z,5.97
2018-05-24T04:18:06.521Z,6.20
2018-05-24T04:20:33.590Z,5.77
2018-05-24T04:23:02.669Z,6.30
2018-05-24T04:25:29.858Z,6.23
2018-05-24T04:27:56.614Z,6.40
2018-05-24T04:30:23.966Z,6.00
2018-05-24T04:32:51.510Z,5.40
2018-05-24T04:35:18.261Z,6.47
2018-05-24T04:37:44.986Z,6.37
2018-05-24T04:40:11.754Z,6.37
2018-05-24T04:42:38.683Z,6.90
2018-05-24T04:45:05.444Z,6.53
2018-05-24T04:47:32.197Z,6.37
2018-05-24T04:49:58.937Z,6.83
2018-05-24T04:52:25.712Z,6.43
2018-05-24T04:54:52.466Z,6.87
2018-05-24T04:57:19.220Z,6.53
2018-05-24T04:59:46.021Z,6.60
2018-05-24T05:02:12.804Z,6.53
2018-05-24T05:04:39.589Z,6.53
2018-05-24T05:07:06.335Z,5.93
2018-05-24T05:09:33.053Z,7.57
2018-05-24T05:12:00.562Z,7.20
2018-05-24T05:14:27.370Z,6.77
2018-05-24T05:16:54.146Z,6.90
2018-05-24T05:19:20.902Z,5.90
2018-05-24T05:21:47.643Z,6.83
2018-05-24T05:24:14.388Z,5.83
2018-05-24T05:26:41.140Z,5.83
2018-05-24T05:29:07.900Z,6.53
2018-05-24T05:31:34.696Z,6.90
2018-05-24T05:34:02.201Z,6.30
2018-05-24T05:36:28.996Z,5.90
2018-05-24T05:38:56.915Z,6.23
2018-05-24T05:41:24.503Z,6.23
2018-05-24T05:43:51.473Z,5.73
2018-05-24T05:46:18.928Z,5.83
2018-05-24T05:48:45.789Z,6.40
2018-05-24T05:51:12.568Z,6.07
2018-05-24T05:53:39.351Z,6.33
2018-05-24T05:56:06.185Z,6.83
2018-05-24T05:58:32.992Z,6.40
2018-05-24T06:01:00.439Z,6.73
2018-05-24T06:03:27.661Z,5.80
2018-05-24T06:05:55.102Z,6.70
2018-05-24T06:08:22.704Z,6.33
2018-05-24T06:10:50.031Z,6.27
2018-05-24T06:13:16.877Z,6.27
2018-05-24T06:15:43.641Z,6.63
2018-05-24T06:18:10.530Z,6.00
2018-05-24T06:20:38.205Z,6.33
2018-05-24T06:23:05.097Z,7.60
2018-05-24T06:25:31.884Z,6.10
2018-05-24T06:27:58.689Z,6.80
2018-05-24T06:30:25.453Z,7.70
2018-05-24T06:32:52.321Z,7.77
2018-05-24T06:35:19.276Z,7.70
2018-05-24T06:37:46.950Z,7.27
2018-05-24T06:40:14.590Z,6.53
2018-05-24T06:42:41.445Z,7.10
2018-05-24T06:45:08.240Z,6.87
2018-05-24T06:47:35.430Z,6.30
2018-05-24T06:50:12.121Z,6.28
2018-05-24T06:52:38.926Z,5.80
2018-05-24T06:55:06.376Z,6.20
2018-05-24T06:57:33.125Z,5.87
2018-05-24T07:00:00.022Z,6.10
2018-05-24T07:02:26.741Z,5.53
2018-05-24T07:04:54.447Z,5.77
2018-05-24T07:07:21.340Z,5.07
2018-05-24T07:09:48.720Z,4.80
2018-05-24T07:12:15.507Z,4.73
2018-05-24T07:14:42.385Z,5.23
2018-05-24T07:17:09.205Z,5.27
2018-05-24T07:19:36.653Z,5.53
2018-05-24T07:22:03.537Z,5.50
2018-05-24T07:24:30.345Z,5.17
2018-05-24T07:26:57.968Z,5.10
2018-05-24T07:29:24.837Z,4.73
2018-05-24T07:31:51.622Z,4.80
2018-05-24T07:34:18.440Z,4.90
2018-05-24T07:36:45.261Z,5.47
2018-05-24T07:39:12.469Z,5.90
2018-05-24T07:41:39.306Z,5.80
2018-05-24T07:44:06.722Z,5.60
2018-05-24T07:46:34.238Z,5.77
2018-05-24T07:49:01.077Z,6.00
2018-05-24T07:51:27.849Z,6.03
2018-05-24T07:53:56.128Z,5.80
2018-05-24T07:56:24.529Z,6.23
2018-05-24T07:58:51.485Z,5.57
2018-05-24T08:01:18.364Z,5.90
2018-05-24T08:03:45.955Z,5.78
2018-05-24T08:06:13.110Z,6.12
2018-05-24T08:08:39.893Z,6.20
2018-05-24T08:11:06.675Z,6.20
2018-05-24T08:13:34.278Z,6.57
2018-05-24T08:16:01.073Z,6.72
2018-05-24T08:18:28.765Z,5.80
2018-05-24T08:20:55.550Z,6.53
2018-05-24T08:23:22.776Z,6.05
2018-05-24T08:25:50.192Z,5.95
2018-05-24T08:28:16.960Z,6.10
2018-05-24T08:30:43.936Z,5.40
2018-05-24T08:33:11.545Z,5.32
2018-05-24T08:35:38.321Z,5.72
2018-05-24T08:38:05.176Z,5.43
2018-05-24T08:40:32.029Z,5.37
2018-05-24T08:42:58.915Z,5.55
2018-05-24T08:45:25.874Z,5.18
2018-05-24T08:47:52.634Z,4.47
2018-05-24T08:50:19.389Z,3.95
2018-05-24T08:52:56.730Z,3.45
2018-05-24T08:55:24.144Z,3.22
2018-05-24T08:57:51.617Z,3.40
2018-05-24T09:00:19.539Z,4.33
2018-05-24T09:02:47.841Z,3.30
2018-05-24T09:05:15.991Z,3.70
2018-05-24T09:07:44.267Z,4.30
2018-05-24T09:10:11.082Z,3.43
2018-05-24T09:12:39.566Z,3.33
2018-05-24T09:15:12.609Z,4.43
2018-05-24T09:20:17.099Z,3.13
2018-05-24T09:32:31.377Z,2.67
2018-05-24T09:35:00.893Z,3.30
2018-05-24T09:37:27.746Z,2.70
2018-05-24T09:40:06.092Z,3.23
2018-05-24T09:42:52.178Z,2.93
2018-05-24T09:45:41.454Z,3.13
2018-05-24T09:48:11.985Z,3.40
2018-05-24T09:50:42.229Z,3.10
2018-05-24T09:53:09.718Z,3.10
2018-05-24T09:55:38.260Z,2.93
2018-05-24T10:00:43.533Z,3.10
2018-05-24T10:03:10.389Z,3.47
2018-05-24T10:06:10.454Z,3.73
2018-05-24T10:08:39.549Z,3.40
2018-05-24T10:11:07.051Z,3.27
2018-05-24T10:13:33.975Z,3.03
2018-05-24T10:16:00.933Z,2.63
2018-05-24T10:18:38.655Z,3.53
2018-05-24T10:21:05.433Z,3.90
2018-05-24T10:23:36.276Z,3.17
2018-05-24T10:26:03.025Z,3.17
2018-05-24T10:28:30.883Z,3.27
2018-05-24T10:31:00.458Z,3.10
2018-05-24T10:33:27.373Z,6.50
2018-05-24T10:35:54.556Z,2.40
2018-05-24T10:38:31.698Z,2.93
2018-05-24T10:41:00.249Z,3.03
2018-05-24T10:43:43.154Z,3.10
2018-05-24T10:46:10.057Z,3.37
2018-05-24T10:48:37.089Z,3.20
2018-05-24T10:53:35.550Z,3.30
2018-05-24T10:56:02.446Z,3.10
2018-05-24T10:58:29.485Z,3.20
2018-05-24T11:00:56.426Z,2.83
2018-05-24T11:03:34.838Z,2.97
2018-05-24T11:06:01.627Z,2.67
2018-05-24T11:08:28.524Z,3.07
2018-05-24T11:10:55.465Z,3.30
2018-05-24T11:13:22.284Z,3.40
2018-05-24T11:15:49.376Z,2.50
2018-05-24T11:18:16.214Z,2.65
2018-05-24T11:20:43.875Z,2.80
2018-05-24T11:23:21.314Z,2.60
2018-05-24T11:25:48.137Z,3.00
2018-05-24T11:28:14.959Z,3.40
2018-05-24T11:33:31.156Z,2.97
2018-05-24T11:35:58.853Z,2.83
2018-05-24T11:38:25.803Z,3.10
2018-05-24T11:40:52.723Z,3.08
2018-05-24T11:43:20.228Z,2.60
2018-05-24T11:45:48.693Z,2.95
2018-05-24T11:48:25.912Z,2.75
2018-05-24T11:50:53.031Z,3.03
2018-05-24T11:53:20.579Z,2.65
2018-05-24T11:55:48.324Z,3.22
2018-05-24T11:58:18.139Z,3.35
2018-05-24T12:00:45.917Z,3.12
2018-05-24T12:03:13.609Z,2.90
2018-05-24T12:05:40.653Z,2.78
2018-05-24T12:08:08.389Z,3.22
2018-05-24T12:10:36.581Z,3.85
2018-05-24T12:13:03.637Z,3.53
2018-05-24T12:15:30.584Z,3.40
2018-05-24T12:17:58.405Z,3.30
2018-05-24T12:20:32.459Z,2.92
2018-05-24T12:22:59.363Z,2.90
2018-05-24T12:25:26.604Z,3.42
2018-05-24T12:27:54.461Z,3.70
2018-05-24T12:30:22.016Z,3.05
2018-05-24T12:32:48.927Z,2.83
2018-05-24T12:35:15.877Z,3.25
2018-05-24T12:37:43.056Z,3.28
2018-05-24T12:40:09.839Z,3.28
2018-05-24T12:42:36.692Z,3.65
2018-05-24T12:45:04.069Z,2.87
2018-05-24T12:47:33.530Z,3.22
2018-05-24T12:50:01.798Z,3.00
2018-05-24T12:52:28.693Z,3.28
2018-05-24T12:54:55.600Z,3.08
2018-05-24T12:57:22.492Z,2.87
2018-05-24T12:59:49.276Z,3.12
2018-05-24T13:02:17.172Z,3.00
2018-05-24T13:04:56.297Z,2.90
2018-05-24T13:07:23.137Z,2.67
2018-05-24T13:09:49.981Z,2.53
2018-05-24T13:12:16.757Z,2.40
2018-05-24T13:14:43.548Z,2.85
2018-05-24T13:19:54.144Z,3.72
2018-05-24T13:22:21.691Z,2.87
2018-05-24T13:24:48.536Z,3.12
2018-05-24T13:27:15.365Z,2.92
2018-05-24T13:29:42.256Z,3.10
2018-05-24T13:32:09.113Z,3.30
2018-05-24T13:34:36.983Z,3.00
2018-05-24T13:37:04.660Z,2.87
2018-05-24T13:42:27.277Z,3.42
2018-05-24T13:44:54.077Z,3.40
2018-05-24T13:47:20.890Z,2.97
2018-05-24T13:49:48.114Z,2.90
2018-05-24T13:52:14.857Z,3.42
2018-05-24T13:54:41.621Z,3.10
2018-05-24T13:57:08.380Z,3.45
2018-05-24T13:59:35.149Z,3.28
2018-05-24T14:02:02.354Z,2.83
2018-05-24T14:04:29.129Z,3.33
2018-05-24T14:06:55.892Z,3.17
2018-05-24T14:09:22.655Z,3.03
2018-05-24T14:11:49.463Z,2.80
2018-05-24T14:14:16.261Z,3.15
2018-05-24T14:16:43.052Z,3.35
2018-05-24T14:19:10.723Z,2.97
2018-05-24T14:21:37.488Z,2.83
2018-05-24T14:24:04.240Z,3.33
2018-05-24T14:26:30.985Z,3.55
2018-05-24T14:28:57.780Z,3.47
2018-05-24T14:31:24.531Z,3.65
2018-05-24T14:33:51.293Z,3.45
2018-05-24T14:36:18.104Z,2.85
2018-05-24T14:38:44.873Z,2.92
2018-05-24T14:41:11.624Z,2.50
2018-05-24T14:43:38.448Z,2.60
2018-05-24T14:46:05.224Z,2.80
2018-05-24T14:48:32.008Z,3.15
2018-05-24T14:50:58.772Z,2.80
2018-05-24T14:53:25.562Z,3.00
2018-05-24T14:55:52.453Z,3.05
2018-05-24T14:58:19.244Z,3.37
2018-05-24T15:00:46.417Z,3.25
2018-05-24T15:03:13.242Z,3.10
2018-05-24T15:05:40.056Z,3.08
2018-05-24T15:08:06.878Z,3.50
2018-05-24T15:10:33.661Z,2.90
2018-05-24T15:13:00.432Z,3.12
2018-05-24T15:15:27.228Z,3.00
2018-05-24T15:17:54.984Z,2.90
2018-05-24T15:20:21.988Z,3.12
2018-05-24T15:22:48.785Z,2.90
2018-05-24T15:25:15.558Z,3.00
2018-05-24T15:27:42.329Z,3.12
2018-05-24T15:30:09.085Z,3.12
2018-05-24T15:32:35.872Z,2.72
2018-05-24T15:35:02.696Z,3.00
2018-05-24T15:37:29.489Z,3.20
2018-05-24T15:39:57.379Z,3.05
2018-05-24T15:42:24.169Z,3.10
2018-05-24T15:44:50.993Z,2.97
2018-05-24T15:47:18.523Z,2.60
2018-05-24T15:49:45.296Z,2.90
2018-05-24T15:52:12.073Z,2.87
2018-05-24T15:54:39.633Z,2.45
2018-05-24T15:57:06.780Z,3.08
2018-05-24T15:59:33.605Z,3.53
2018-05-24T16:02:00.602Z,2.95
2018-05-24T16:04:27.380Z,2.70
2018-05-24T16:06:54.165Z,2.85
2018-05-24T16:09:20.962Z,2.80
2018-05-24T16:11:47.712Z,2.53
2018-05-24T16:14:14.524Z,3.17
2018-05-24T16:16:41.872Z,3.22
2018-05-24T16:19:08.675Z,3.15
2018-05-24T16:21:35.561Z,3.10
2018-05-24T16:24:02.619Z,2.70
2018-05-24T16:26:29.500Z,2.90
2018-05-24T16:28:56.337Z,3.33
2018-05-24T16:31:23.685Z,4.22
2018-05-24T16:33:51.385Z,2.83
2018-05-24T16:36:18.133Z,2.80
2018-05-24T16:38:44.938Z,3.23
2018-05-24T16:41:11.880Z,2.97
2018-05-24T16:43:39.393Z,3.03
2018-05-24T16:46:06.254Z,3.27
2018-05-24T16:48:33.089Z,3.20
2018-05-24T16:50:59.975Z,3.60
2018-05-24T16:53:28.610Z,2.83
2018-05-24T16:55:55.692Z,3.57
2018-05-24T16:58:22.534Z,3.10
2018-05-24T17:00:49.653Z,3.30
2018-05-24T17:03:16.472Z,3.10
2018-05-24T17:05:44.288Z,3.07
2018-05-24T17:08:11.334Z,3.07
2018-05-24T17:10:38.448Z,2.83
2018-05-24T17:13:05.280Z,3.60
2018-05-24T17:15:32.160Z,3.33
2018-05-24T17:17:58.985Z,2.77
2018-05-24T17:20:25.869Z,3.00
2018-05-24T17:22:53.262Z,2.97
2018-05-24T17:25:20.606Z,3.20
2018-05-24T17:27:47.976Z,4.47
2018-05-24T17:30:14.825Z,3.00
2018-05-24T17:32:41.588Z,3.57
2018-05-24T17:35:08.404Z,5.00
2018-05-24T17:37:35.222Z,5.90
2018-05-24T17:40:02.592Z,4.63
2018-05-24T17:42:29.388Z,4.30
2018-05-24T17:44:56.220Z,4.33
2018-05-24T17:47:23.102Z,4.17
2018-05-24T17:49:49.949Z,3.77
2018-05-24T17:52:16.741Z,4.23
2018-05-24T17:54:43.557Z,3.80
2018-05-24T17:57:10.892Z,4.10
2018-05-24T17:59:37.697Z,3.63
2018-05-24T18:02:04.495Z,3.03
2018-05-24T18:04:31.679Z,5.20
2018-05-24T18:06:59.208Z,4.23
2018-05-24T18:09:26.060Z,3.90
2018-05-24T18:11:52.853Z,3.87
2018-05-24T18:14:19.641Z,3.23
2018-05-24T18:16:48.079Z,3.33
2018-05-24T18:19:15.210Z,2.93
2018-05-24T18:21:42.031Z,3.23
2018-05-24T18:24:09.465Z,3.80
2018-05-24T18:26:36.808Z,5.73
2018-05-24T18:29:03.628Z,3.50
2018-05-24T18:31:30.497Z,3.43
2018-05-24T18:33:57.277Z,3.90
2018-05-24T18:36:24.222Z,3.67
2018-05-24T18:38:51.205Z,3.20
2018-05-24T18:41:19.320Z,3.40
2018-05-24T18:43:46.565Z,4.10
2018-05-24T18:46:23.273Z,4.37
2018-05-24T18:48:51.989Z,4.00
2018-05-24T18:51:18.847Z,3.53
2018-05-24T18:56:33.025Z,3.80
2018-05-24T18:58:59.977Z,3.70
2018-05-24T19:01:26.812Z,3.50
2018-05-24T19:03:54.991Z,3.60
2018-05-24T19:06:21.930Z,3.70
2018-05-24T19:08:48.780Z,4.00
2018-05-24T19:11:15.664Z,3.60
2018-05-24T19:13:42.701Z,3.70
2018-05-24T19:16:09.645Z,3.63
2018-05-24T19:21:10.650Z,3.67
2018-05-24T19:23:37.701Z,3.90
2018-05-24T19:26:04.563Z,3.67
2018-05-24T19:28:31.420Z,4.27
2018-05-24T19:30:58.319Z,3.70
2018-05-24T19:33:28.462Z,3.63
2018-05-24T19:35:56.854Z,3.90
2018-05-24T19:38:23.656Z,4.00
2018-05-24T19:40:50.567Z,3.87
2018-05-24T19:43:17.360Z,3.73
2018-05-24T19:45:46.190Z,3.87
2018-05-24T19:48:13.118Z,4.13
2018-05-24T19:50:40.056Z,3.93
2018-05-24T19:53:09.486Z,3.87
2018-05-24T19:55:36.458Z,3.43
2018-05-24T19:58:03.583Z,3.80
2018-05-24T20:00:30.641Z,4.00
2018-05-24T20:02:57.658Z,3.97
2018-05-24T20:05:24.505Z,3.37
2018-05-24T20:07:51.764Z,3.77
2018-05-24T20:10:19.731Z,4.23
2018-05-24T20:12:47.313Z,3.77
2018-05-24T20:15:16.532Z,3.47
2018-05-24T20:17:43.996Z,3.90
2018-05-24T20:20:13.758Z,4.50
2018-05-24T20:22:40.638Z,3.90
2018-05-24T20:25:09.701Z,3.90
2018-05-24T20:27:36.717Z,4.20
2018-05-24T20:30:05.216Z,3.97
2018-05-24T20:32:32.856Z,4.37
2018-05-24T20:34:59.769Z,3.73
2018-05-24T20:37:27.128Z,4.10
2018-05-24T20:39:54.586Z,3.83
2018-05-24T20:42:33.135Z,4.23
2018-05-24T20:47:55.750Z,4.20
2018-05-24T20:50:23.416Z,3.37
2018-05-24T20:52:51.218Z,4.10
2018-05-24T20:55:19.282Z,4.40
2018-05-24T20:57:46.680Z,4.03
2018-05-24T21:00:13.696Z,3.37
2018-05-24T21:02:41.128Z,4.10
2018-05-24T21:05:08.712Z,4.00
2018-05-24T21:07:35.618Z,3.90
2018-05-24T21:10:02.487Z,4.07
2018-05-24T21:12:29.273Z,4.00
2018-05-24T21:14:56.748Z,4.03
2018-05-24T21:17:23.648Z,3.90
2018-05-24T21:19:50.896Z,3.67
2018-05-24T21:22:17.853Z,3.70
2018-05-24T21:24:44.817Z,3.97
2018-05-24T21:27:12.695Z,4.07
2018-05-24T21:29:39.678Z,4.53
2018-05-24T21:32:07.349Z,3.73
2018-05-24T21:34:34.216Z,4.37
2018-05-24T21:37:01.868Z,4.33
2018-05-24T21:39:28.713Z,4.33
2018-05-24T21:41:55.565Z,4.10
2018-05-24T21:44:22.525Z,3.67
2018-05-24T21:46:49.351Z,4.73
2018-05-24T21:49:16.428Z,4.50
2018-05-24T21:51:44.424Z,4.57
2018-05-24T21:54:17.978Z,3.97
2018-05-24T21:56:47.702Z,5.00
2018-05-24T21:59:15.801Z,4.40
2018-05-24T22:01:42.765Z,4.57
2018-05-24T22:04:09.654Z,4.60
2018-05-24T22:06:36.584Z,4.40
2018-05-24T22:09:03.507Z,4.37
2018-05-24T22:11:30.404Z,4.23
2018-05-24T22:13:58.183Z,4.90
2018-05-24T22:16:26.371Z,4.73
2018-05-24T22:18:53.809Z,4.67
2018-05-24T22:21:21.107Z,4.70
2018-05-24T22:23:48.422Z,5.40
2018-05-24T22:26:15.383Z,5.07
2018-05-24T22:28:42.284Z,5.43
2018-05-24T22:31:09.449Z,5.00
2018-05-24T22:33:36.512Z,4.97
2018-05-24T22:36:04.618Z,5.13
2018-05-24T22:38:31.565Z,5.33
2018-05-24T22:40:59.609Z,4.80
2018-05-24T22:43:27.067Z,5.40
2018-05-24T22:45:54.694Z,5.50
2018-05-24T22:48:24.977Z,5.33
2018-05-24T22:50:52.725Z,5.97
2018-05-24T22:53:19.613Z,5.37
2018-05-24T22:55:46.453Z,5.13
2018-05-24T22:58:14.271Z,5.83
2018-05-24T23:00:41.270Z,5.10
2018-05-24T23:03:13.162Z,5.53
2018-05-24T23:05:44.866Z,5.80
2018-05-24T23:21:12.633Z,5.27
2018-05-24T23:23:39.446Z,5.90
2018-05-24T23:26:06.225Z,5.70
2018-05-24T23:28:35.081Z,6.00
2018-05-24T23:31:03.231Z,6.07
2018-05-24T23:33:30.652Z,6.07
2018-05-24T23:35:58.041Z,6.03
2018-05-24T23:38:25.319Z,6.30
2018-05-24T23:40:52.109Z,5.87
2018-05-24T23:43:18.969Z,6.77
2018-05-24T23:45:45.769Z,6.43
2018-05-24T23:48:12.629Z,6.63
2018-05-24T23:50:40.330Z,6.93
2018-05-24T23:53:07.483Z,6.43
2018-05-24T23:55:34.376Z,6.37
2018-05-24T23:58:01.197Z,7.07
